Flight Track Log - Related Links

Times and Time Zones

All times are in EDT time to prevent confusion due to time zone crossing. See the N9191V flight status page for this flight to view local times or setup timezone preferences in your user account.

Time Position Orientation Groundspeed Altitude Reporting Facility
EDT Latitude Longitude Course Direction KTS MPH feet Rate Location/Type
Sun 03:25:02 PM 38.9333 -76.5333 303° West 93 107 900  Level Potomac TRACON
Sun 03:26:02 PM 38.9333 -76.4833 90° East 109 125 1,500 600 Climbing Potomac TRACON
Sun 03:27:02 PM 38.9500 -76.4500 57° Northeast 112 129 2,100 600 Climbing Potomac TRACON
Sun 03:28:02 PM 38.9500 -76.4167 90° East 101 116 2,700 446 Climbing Potomac TRACON
Sun 03:29:03 PM 38.9667 -76.3833 57° Northeast 112 129 3,000 446 Climbing Potomac TRACON
Sun 03:30:00 PM 39.1361 -76.5888 303° West  Level FlightAware Approximate
Sun 03:30:03 PM 38.9833 -76.3500 57° Northeast 111 128 3,600  Level Potomac TRACON
Sun 03:31:03 PM 39.0000 -76.3167 57° Northeast 113 130 4,200 550 Climbing Potomac TRACON
Sun 03:32:03 PM 39.0333 -76.3000 21° North 123 142 4,700 397 Climbing Potomac TRACON
Sun 03:33:04 PM 39.0667 -76.2833 21° North 129 148 5,000 198 Climbing Potomac TRACON
Sun 03:34:04 PM 39.1000 -76.2667 21° North 150 173 5,100 298 Climbing Potomac TRACON
Sun 03:35:05 PM 39.1333 -76.2667 360° North 141 162 5,600 417 Climbing Potomac TRACON
Sun 03:35:59 PM 39.1833 -76.2667 360° North 141 162 5,900 365 Climbing Potomac TRACON
Sun 03:37:00 PM 39.2167 -76.2667 360° North 140 161 6,300 417 Climbing Potomac TRACON
Sun 03:37:54 PM 39.2500 -76.2667 360° North 142 163 6,700 347 Climbing Potomac TRACON
Sun 03:39:01 PM 39.3000 -76.2667 360° North 149 171 7,000 142 Climbing Potomac TRACON
Sun 03:40:01 PM 39.3500 -76.2667 360° North 162 186 7,000  Level Potomac TRACON
Sun 03:41:02 PM 39.3833 -76.2667 360° North 166 191 7,000  Level Potomac TRACON
Sun 03:42:02 PM 39.4333 -76.2667 360° North 162 186 7,000  Level Potomac TRACON
Sun 03:43:02 PM 39.4833 -76.2667 360° North 167 192 7,000  Level Potomac TRACON
Sun 03:44:03 PM 39.5333 -76.2667 360° North 164 189 7,000  Level Potomac TRACON
Sun 03:45:03 PM 39.5667 -76.2667 360° North 163 188 7,000  Level Potomac TRACON
Sun 03:46:04 PM 39.6167 -76.2667 360° North 164 189 7,000  Level Potomac TRACON
Sun 03:47:04 PM 39.6667 -76.2667 360° North 162 186 7,000 47 Level Potomac TRACON
Sun 03:49:00 PM 39.7441 -76.2280 21° North  Level FlightAware Approximate
Sun 03:56:00 PM 40.0268 -76.2107 31° Northeast  Level FlightAware Approximate
Sun 03:56:43 PM 40.0331 -76.0467 32° Northeast 165 190 7,500  Level New York Center
Sun 03:57:00 PM 40.0636 -76.1821 31° Northeast  Level FlightAware Approximate
Sun 03:57:41 PM 40.0675 -76.0222 29° Northeast 165 190 7,500  Level New York Center
Sun 03:58:00 PM 40.1003 -76.1531 31° Northeast  Level FlightAware Approximate
Sun 03:58:42 PM 40.1086 -75.9900 31° Northeast 154 177 7,500  Level New York Center
Sun 03:59:00 PM 40.1369 -76.1239 31° Northeast  Level FlightAware Approximate
Sun 03:59:43 PM 40.1411 -75.9625 33° Northeast 154 177 7,500  Level New York Center
Sun 04:00:00 PM 40.1734 -76.0944 32° Northeast  Level FlightAware Approximate
Sun 04:00:44 PM 40.1819 -75.9303 31° Northeast 149 171 7,500  Level New York Center
Sun 04:01:00 PM 40.2096 -76.0643 32° Northeast  Level FlightAware Approximate
Sun 04:01:41 PM 40.2228 -75.9033 27° Northeast 155 178 7,500  Level New York Center
Sun 04:02:42 PM 40.2617 -75.8708 33° Northeast 161 185 7,500  Level New York Center
Sun 04:03:43 PM 40.2961 -75.8461 29° Northeast 161 185 7,500  Level New York Center
Sun 04:04:44 PM 40.3328 -75.8161 32° Northeast 161 185 7,500  Level New York Center
Sun 04:05:42 PM 40.3717 -75.7836 32° Northeast 155 178 7,500  Level New York Center
Sun 04:06:42 PM 40.4106 -75.7539 30° Northeast 155 178 7,500  Level New York Center
Sun 04:07:43 PM 40.4431 -75.7261 33° Northeast 149 171 7,500  Level New York Center
Sun 04:08:42 PM 40.4797 -75.6961 32° Northeast 149 171 7,500  Level New York Center
Sun 04:09:42 PM 40.5186 -75.6633 33° Northeast 149 171 7,500  Level New York Center
Sun 04:10:43 PM 40.5531 -75.6331 34° Northeast 149 171 7,500  Level New York Center
Sun 04:11:44 PM 40.5897 -75.6028 32° Northeast 149 171 7,500  Level New York Center
Sun 04:12:41 PM 40.6222 -75.5750 33° Northeast 149 171 7,500  Level New York Center
Sun 04:13:42 PM 40.6567 -75.5444 34° Northeast 149 171 7,500  Level New York Center
Sun 04:14:44 PM 40.6933 -75.5142 32° Northeast 149 171 7,500  Level New York Center
Sun 04:15:42 PM 40.7281 -75.4839 33° Northeast 149 171 7,500  Level New York Center
Sun 04:17:00 PM 40.7813 -75.4578 20° North  Level FlightAware Approximate
Sun 04:20:54 PM 40.9194 -75.3294 29° Northeast 152 175 7,500  Level New York Center
Sun 04:21:54 PM 40.9561 -75.2989 32° Northeast 168 193 7,500  Level New York Center
Sun 04:22:54 PM 40.9944 -75.2742 26° Northeast 161 185 7,500  Level New York Center
Sun 04:23:55 PM 41.0328 -75.2547 21° North 161 185 7,500 50 Level New York Center
Sun 04:24:00 PM 41.0615 -75.2916 29° Northeast  Level FlightAware Approximate
Sun 04:24:55 PM 41.0731 -75.2325 23° Northeast 156 180 7,600  Level New York Center
Sun 04:25:00 PM 41.0999 -75.2638 29° Northeast  Level FlightAware Approximate
Sun 04:25:53 PM 41.1158 -75.2078 24° Northeast 156 180 7,600  Level New York Center
Sun 04:26:53 PM 41.1522 -75.1825 28° Northeast 156 180 7,600  Level New York Center
Sun 04:27:55 PM 41.1883 -75.1603 25° Northeast 151 174 7,600  Level New York Center
Sun 04:28:53 PM 41.2228 -75.1267 36° Northeast 151 174 7,600  Level New York Center
Sun 04:29:54 PM 41.2617 -75.0931 33° Northeast 151 174 7,600 -33 Level New York Center
Sun 04:31:00 PM 41.3000 -75.0543 37° Northeast  Level FlightAware Approximate
Sun 04:31:55 PM 41.3325 -75.0314 37° Northeast 151 174 7,500  Level New York Center
Sun 04:32:53 PM 41.3647 -75.0031 33° Northeast 151 174 7,500  Level New York Center
Sun 04:33:54 PM 41.3992 -74.9722 34° Northeast 151 174 7,500  Level New York Center
Sun 04:34:54 PM 41.4381 -74.9358 35° Northeast 151 174 7,500  Level New York Center
Sun 04:35:56 PM 41.4728 -74.8992 38° Northeast 151 174 7,500  Level New York Center
Sun 04:36:53 PM 41.5050 -74.8706 34° Northeast 151 174 7,500  Level New York Center
Sun 04:37:54 PM 41.5436 -74.8369 33° Northeast 151 174 7,500  Level New York Center
Sun 04:38:54 PM 41.5756 -74.8111 31° Northeast 151 174 7,500  Level New York Center
Sun 04:39:55 PM 41.6122 -74.7747 37° Northeast 146 168 7,500 52 Level New York Center
Sun 04:40:50 PM 41.6475 -74.7461 31° Northeast 147 169 7,600 52 Climbing Boston Center
Sun 04:41:50 PM 41.6833 -74.7167 32° Northeast 147 169 7,600  Level Boston Center
Sun 04:42:50 PM 41.7175 -74.6844 35° Northeast 147 169 7,600  Level Boston Center
Sun 04:43:50 PM 41.7514 -74.6525 35° Northeast 147 169 7,600  Level Boston Center
Sun 04:44:50 PM 41.7875 -74.6231 31° Northeast 147 169 7,600  Level Boston Center
Sun 04:45:50 PM 41.8233 -74.5936 31° Northeast 147 169 7,600  Level Boston Center
Sun 04:47:14 PM 41.8681 -74.5561 32° Northeast 147 169 7,600  Level Boston Center
Sun 04:48:14 PM 41.9081 -74.5239 31° Northeast 147 169 7,600 -47 Level Boston Center
Sun 04:49:21 PM 41.9442 -74.4917 34° Northeast 147 169 7,500 -50 Descending Boston Center
Sun 04:50:14 PM 41.9739 -74.4619 37° Northeast 147 169 7,500  Level Boston Center
Sun 04:51:10 PM 42.0078 -74.4322 33° Northeast 149 171 7,500  Level Boston Center
Sun 04:52:26 PM 42.0522 -74.3917 34° Northeast 147 169 7,500  Level Boston Center
Sun 04:53:26 PM 42.0839 -74.3647 32° Northeast 147 169 7,500  Level Boston Center
Sun 04:54:36 PM 42.1283 -74.3242 34° Northeast 153 176 7,500  Level Boston Center
Sun 04:55:19 PM 42.1539 -74.3025 32° Northeast 153 176 7,500  Level Boston Center
Sun 04:56:20 PM 42.1875 -74.2725 33° Northeast 150 173 7,500  Level Boston Center
Sun 04:57:14 PM 42.2192 -74.2456 32° Northeast 143 165 7,500 -129 Level Boston Center
Sun 04:58:39 PM 42.2681 -74.2019 33° Northeast 149 171 7,200 -205 Descending Boston Center
Sun 04:59:40 PM 42.3017 -74.1722 33° Northeast 151 174 7,000 -259 Descending Boston Center
Sun 05:00:35 PM 42.3333 -74.1450 32° Northeast 154 177 6,700 -298 Descending Boston Center
Sun 05:01:41 PM 42.3778 -74.1067 32° Northeast 156 180 6,400 -291 Descending Boston Center
Sun 05:02:18 PM 42.3989 -74.0875 34° Northeast 152 175 6,200 -306 Descending Boston Center
Sun 05:03:19 PM 42.4367 -74.0606 28° Northeast 151 174 5,900 -375 Descending Boston Center
Sun 05:04:26 PM 42.4747 -74.0333 28° Northeast 149 171 5,400 -425 Descending Boston Center
Sun 05:05:26 PM 42.5106 -74.0006 34° Northeast 151 174 5,000 -417 Descending Boston Center
Sun 05:06:21 PM 42.5442 -73.9731 31° Northeast 154 177 4,600 -375 Descending Boston Center
Sun 05:07:34 PM 42.5906 -73.9517 19° North 155 178 4,200 -403 Descending Boston Center
Sun 05:08:35 PM 42.6344 -73.9386 12° North 155 178 3,700 -545 Descending Boston Center
Sun 05:09:35 PM 42.6783 -73.9256 12° North 158 182 3,100 -496 Descending Boston Center
Sun 05:10:36 PM 42.7222 -73.9125 12° North 159 183 2,700 -155 Descending Boston Center
Sun 05:11:31 PM 42.7536 -73.8964 21° North 118 136 2,800 -347 Climbing Boston Center
Sun 05:12:37 PM 42.7769 -73.8628 47° Northeast 104 120 2,000 -767 Descending Boston Center
Sun 05:13:44 PM 42.7756 -73.8203 93° East 108 124 1,100 -873 Descending Boston Center
Sun 05:14:27 PM 42.7589 -73.8058 148° Southeast 107 123 400 -977 Descending Boston Center
Sun 05:16:00 PM 42.7491 -73.8020 36° Northeast  Level Estimated
Sun 05:23:00 PM 42.7491 -73.8020 36° Northeast  Level Estimated
Sun 05:24:00 PM 42.7491 -73.8020 36° Northeast  Level Estimated
Sun 05:25:00 PM 42.7491 -73.8020 36° Northeast  Level Estimated

Login

Don't have an account? Register now (free) for customized features, flight alerts, and more!